Main page
METAR-TAF:

METAR-TAF

Airports :

Murcia–San Javier Airport

Murcia, Spain

latitude: 37-47N, longitude: 000-48W, elevation: 5 m

Current weather observation

The report was made 24 minutes ago, at 01:30 UTC
Wind 2 kt from variable directions
Temperature 11°C
Humidity 87%
Pressure 1010 hPa
Visibility 10 km or more
no clouds below 1500 m and no cumulonimbus

METAR: LELC 200130Z AUTO VRB02KT CAVOK 11/09 Q1010

Time: 02:54 (01:54 UTC)

Forecast

The report was made 2 hours and 54 minutes ago, at 23:00 UTC
Forecast valid from 20 at 00 UTC to 20 at 24 UTC
Wind 5 kt from the West
Visibility 10 km or more
Few clouds at a height of 4000 ft
Probability 40% :
Temporary
from 20 at 00 UTC to 20 at 12 UTC
Visibility: 4000 m
Broken clouds at a height of 2500 ft
rain
Becoming
from 20 at 06 UTC to 20 at 08 UTC
Wind 10 kt from the Northwest

TAF: LELC 192300Z 2000/2024 26005KT 9999 FEW040 TX15/2013Z TN07/2006Z PROB40 TEMPO 2000/2012 4000 RA BKN025 BECMG 2006/2008 32010KT

Weather observations and forecasts of more than 4000 airports (METAR and TAF reports).

The available stations are represented by yellow and red dots on the map.

Hover mouse over dot to see the name of the station.

Then click to see weather observations and forecasts.

To change the map : click on the green buttons with a black cross to zoom in, on the green button with a dash to zoom out, or on the green arrows for adjacent maps.


METAR-TAF: